Flight Briefing for CPX784

Departure Arrival
Incheon International Airport (RKSI)
Click to view FAA NOTAMS
Tan Son Nhat International Airport (VVTS)
Click to view FAA NOTAMS
Departure Time Arrival Time
N/A N/A
Aircraft Distance
B767-300BDSF 2216nm
Departure METAR Arrival METAR
RKSI 271130Z 32013KT 9999 FEW040 17/09 Q1005 NOSIG VVTS 271130Z 22004KT 180V250 8000 -RA SCT015 FEW017CB BKN040 27/26 Q1007 NOSIG RMK CB/SW
Suggested Route
BOPTA1K BOPTA Z51 BEDES Y711 MUGUS Y742 SALMI Q11 DRAKE Q11 TACLE Q12 KABAM N892 MESOX Q15 CRA W2 PTH BAOMY1F


View recent IFR Routes data
Notes



Charts and Procedures

Charts for RKSI
No chart available
Charts for VVTS
No chart available

Windy.com Weather Map